createdAt,value
2018-05-12T00:00:05.782Z,960.66
2018-05-12T00:15:05.781Z,959.78
2018-05-12T00:30:05.292Z,959.81
2018-05-12T00:45:04.866Z,959.95
2018-05-12T01:00:04.814Z,960.66
2018-05-12T01:15:05.088Z,959.46
2018-05-12T01:30:05.165Z,960.52
2018-05-12T01:45:05.209Z,960.11
2018-05-12T02:00:04.692Z,960.22
2018-05-12T02:15:04.875Z,960.98
2018-05-12T02:30:04.622Z,960.76
2018-05-12T02:45:05.332Z,960.63
2018-05-12T03:00:04.555Z,960.6
2018-05-12T03:15:05.196Z,960.52
2018-05-12T03:30:05.314Z,961.2
2018-05-12T03:45:05.445Z,961.09
2018-05-12T04:00:05.507Z,961.09
2018-05-12T04:15:04.824Z,961.34
2018-05-12T04:30:04.865Z,962.53
2018-05-12T04:45:05.557Z,962.53
2018-05-12T05:00:04.628Z,962.86
2018-05-12T05:15:04.886Z,963.95
2018-05-12T05:30:04.611Z,963.02
2018-05-12T05:45:05.382Z,962.26
2018-05-12T06:00:04.974Z,960.27
2018-05-12T06:15:04.580Z,958.97
2018-05-12T06:30:04.994Z,958.67
2018-05-12T06:45:04.492Z,965.46
2018-05-12T07:00:05.464Z,964.53
2018-05-12T07:15:04.973Z,963.43
2018-05-12T07:30:05.108Z,962.28
2018-05-12T07:45:05.622Z,960.96
2018-05-12T08:00:04.798Z,959.23
2018-05-12T08:15:05.317Z,965.01
2018-05-12T08:30:04.662Z,963.91
2018-05-12T08:45:05.643Z,962.08
2018-05-12T09:00:05.443Z,961.81
2018-05-12T09:15:04.402Z,961.11
2018-05-12T09:30:04.724Z,960.81
2018-05-12T09:45:05.462Z,960.42
2018-05-12T10:00:05.329Z,960.7
2018-05-12T10:15:05.349Z,960.04
2018-05-12T10:30:05.396Z,960.48
2018-05-12T10:45:04.630Z,960.51
2018-05-12T11:00:04.720Z,960.23
2018-05-12T11:15:04.710Z,960.42
2018-05-12T11:30:04.454Z,959.76
2018-05-12T11:45:04.944Z,959.59
2018-05-12T12:00:04.446Z,959.4
2018-05-12T12:15:05.024Z,958.85
2018-05-12T12:30:05.193Z,958.35
2018-05-12T12:45:05.370Z,958.43
2018-05-12T13:00:04.967Z,957.93
2018-05-12T13:15:04.775Z,957.35
2018-05-12T13:30:04.514Z,957.41
2018-05-12T13:45:05.096Z,957.13
2018-05-12T14:00:04.936Z,956.77
2018-05-12T14:15:05.375Z,956.05
2018-05-12T14:30:05.346Z,956.25
2018-05-12T14:45:04.896Z,955.91
2018-05-12T15:00:04.992Z,955.72
2018-05-12T15:15:06.118Z,955.39
2018-05-12T15:30:04.889Z,955.11
2018-05-12T15:45:04.833Z,955.09
2018-05-12T16:00:05.419Z,954.89
2018-05-12T16:15:04.966Z,954.86
2018-05-12T16:30:04.684Z,954.89
2018-05-12T16:45:04.561Z,954.78
2018-05-12T17:00:04.487Z,954.97
2018-05-12T17:15:04.965Z,955.06
2018-05-12T17:30:04.677Z,955.44
2018-05-12T17:45:04.661Z,955.11
2018-05-12T18:00:05.136Z,955.11
2018-05-12T18:15:04.562Z,956.05
2018-05-12T18:30:04.615Z,956.61
2018-05-12T18:45:04.530Z,956.66
2018-05-12T19:00:04.561Z,958.02
2018-05-12T19:15:04.471Z,957.8
2018-05-12T19:30:05.328Z,952.16
2018-05-12T19:45:05.475Z,952.81
2018-05-12T20:00:04.590Z,953.23
2018-05-12T20:15:05.320Z,953.34
2018-05-12T20:30:05.080Z,953.8
2018-05-12T20:45:04.613Z,953.56
2018-05-12T21:00:04.680Z,953.97
2018-05-12T21:15:05.346Z,953.91
2018-05-12T21:30:05.178Z,954.41
2018-05-12T21:45:05.179Z,955.28
2018-05-12T22:00:05.166Z,955.31
2018-05-12T22:15:05.218Z,956.57
2018-05-12T22:30:04.618Z,957.07
2018-05-12T22:45:04.559Z,957.34
2018-05-12T23:00:05.190Z,957.92
2018-05-12T23:15:05.164Z,958.27
2018-05-12T23:30:05.753Z,958.49
2018-05-12T23:45:04.675Z,958.82
